Tropical Cyclones
[Index]
Main Index Home Page Stock Weather Photos Extreme Storms Discussion Storm News and Storm Chasing Reports Tropical Cyclones / Hurricanes / Typhoons Weather Data and Links Wild Fires / Bushfires Weather Observation Techniques Weather Picture Catalogue Tornado Pictures and Reports Stock Video Footage and DVDs for sale
Season 1995-1996 Tropical Cyclone ITELLE Track Map
Season 1995-1996 Summaries: [BoM-AU] [JTWC-AU] [JTWC-SIO] [JTWC-SPAC] [JTWC-SH]
<<- Previous TC | JTWC 1995-1996 Season | Next TC ->>

click for intensity scale information  Lat/long Grid: Show Hide

 Date Labels: Show Hide

Joint Typhoon Warning Centre Cyclone Data

Name: ITELLE

06 Apr 1996 12:00 UTC to 18 Apr 1996 12:00 UTC

    date/time    lat    long     hPa   cat  kts
1996-04-06 12   12.8    85.1                  20          
1996-04-06 18   12.7    84.7                  20          
1996-04-07 00   12.8    84.2                  20          
1996-04-07 06   13.0    83.6                  20          
1996-04-07 12   13.4    82.7                  20          
1996-04-07 18   13.8    81.7                  25          
1996-04-08 00   14.2    80.6                  25          
1996-04-08 06   14.2    79.5                  25          
1996-04-08 12   14.0    78.6                  30          
1996-04-08 18   13.8    78.1                  35          
1996-04-09 00   13.7    77.6                  35          
1996-04-09 06   13.6    77.1                  35          
1996-04-09 12   13.4    76.6                  35          
1996-04-09 18   13.2    75.8            1     40          
1996-04-10 00   13.1    75.0            1     45          
1996-04-10 06   13.0    74.1            1     50          
1996-04-10 12   13.0    73.1            2     55          
1996-04-10 18   13.1    72.2            2     60          
1996-04-11 00   13.1    71.5            2     70          
1996-04-11 06   13.2    71.0            3     80          
1996-04-11 12   13.3    70.5            3     90          
1996-04-11 18   13.5    70.0            3     95          
1996-04-12 00   13.6    69.6            4    100          
1996-04-12 06   13.8    68.9            4    105          
1996-04-12 12   14.0    68.3            4    110          
1996-04-12 18   14.2    67.6            4    115          
1996-04-13 00   14.4    66.9            4    120          
1996-04-13 06   14.5    66.1            5    125          
1996-04-13 12   14.6    65.3            5    130          
1996-04-13 18   14.8    64.3            5    135          
1996-04-14 00   15.0    63.5            5    140          
1996-04-14 06   15.3    62.7            5    140          
1996-04-14 12   15.7    62.0            5    140          
1996-04-14 18   16.0    61.3            5    130          
1996-04-15 00   16.4    60.4            4    115          
1996-04-15 06   16.9    59.5            3     95          
1996-04-15 12   17.3    58.6            3     85          
1996-04-15 18   17.4    57.8            3     75          
1996-04-16 00   17.4    57.4            2     65          
1996-04-16 06   17.4    57.2            2     65          
1996-04-16 12   17.5    56.9            2     55          
1996-04-16 18   17.5    56.4            1     50          
1996-04-17 00   17.4    55.9            1     45          
1996-04-17 06   17.3    55.3            1     45          
1996-04-17 12   16.9    54.7            1     40          
1996-04-17 18   16.7    54.2                  35          
1996-04-18 00   16.5    53.7                  30          
1996-04-18 06   16.3    53.1                  30          
1996-04-18 12   16.2    52.6                  25          
Winds are 1-min average.

Tropical cyclone tracks developed by Michael Bath using data from the Joint Typhoon Warning Centre Best Tracks and Google Maps.


[Australian Severe Weather index] [Copyright Notice] [Email Contacts] [Search This Site] [Privacy Policy]
Document: tropical_cyclone_itelle.htm Updated: 18 September 2016